Terminal Aerodrome Forecast
Issued by NWS

Home | Current Version | Previous Version | Text Only | Print | Product List | Glossary On
Versions: 1 2 3 4 5 6 7 8 9 10 11 12 13 14 15
674
FTUS43 KEAX 270753 AAA
TAFSTJ
TAF AMD
KSTJ 270753Z 2708/2806 15006KT P6SM SKC
      TEMPO 2708/2712 VRB03KT 1/2SM FZFG
     FM271900 14010KT P6SM BKN080
     FM280200 16009KT P6SM VCSH BKN030=

USA.gov is the U.S. government's official web portal to all federal, state and local government web resources and services.